createdAt,value
2022-11-14T00:01:23.676Z,94036.97
2022-11-14T00:03:52.764Z,94033.44
2022-11-14T00:06:20.816Z,94032.63
2022-11-14T00:08:48.486Z,94031.81
2022-11-14T00:11:16.479Z,94028.25
2022-11-14T00:13:44.177Z,94027.44
2022-11-14T00:16:11.760Z,94027.44
2022-11-14T00:18:39.385Z,94032.06
2022-11-14T00:21:08.383Z,94023.09
2022-11-14T00:23:35.980Z,94026.63
2022-11-14T00:26:03.540Z,94029.34
2022-11-14T00:28:31.394Z,94026.09
2022-11-14T00:30:59.180Z,94023.38
2022-11-14T00:33:26.732Z,94020.66
2022-11-14T00:35:54.511Z,94021.47
2022-11-14T00:38:23.688Z,94021.47
2022-11-14T00:40:51.353Z,94018.75
2022-11-14T00:43:18.959Z,94000.84
2022-11-14T00:45:46.572Z,94002.47
2022-11-14T00:48:14.248Z,93992.72
2022-11-14T00:50:41.868Z,93976.44
2022-11-14T00:53:09.429Z,93973.72
2022-11-14T00:55:38.592Z,93969.38
2022-11-14T00:58:06.324Z,93972.09
2022-11-14T01:00:33.989Z,93969.38
2022-11-14T01:03:01.676Z,93977.53
2022-11-14T01:05:29.256Z,93972.09
2022-11-14T01:07:56.858Z,93980.53
2022-11-14T01:10:24.531Z,93982.94
2022-11-14T01:12:53.528Z,93994.09
2022-11-14T01:15:21.094Z,94013.88
2022-11-14T01:17:48.684Z,94025.81
2022-11-14T01:20:16.744Z,94024.75
2022-11-14T01:22:44.319Z,94024.75
2022-11-14T01:25:11.887Z,94013.88
2022-11-14T01:27:39.514Z,94003.84
2022-11-14T01:30:09.752Z,94009.53
2022-11-14T01:32:37.326Z,94001.41
2022-11-14T01:35:05.213Z,94011.16
2022-11-14T01:37:32.789Z,94017.69
2022-11-14T01:40:00.368Z,94026.66
2022-11-14T01:42:27.993Z,94023.66
2022-11-14T01:44:55.551Z,94018.50
2022-11-14T01:47:26.757Z,94013.88
2022-11-14T01:49:55.695Z,94003.03
2022-11-14T01:52:24.193Z,94002.22
2022-11-14T01:54:53.232Z,94000.31
2022-11-14T01:57:22.823Z,94000.31
2022-11-14T01:59:52.788Z,93995.97
2022-11-14T02:02:21.411Z,93998.69
2022-11-14T02:04:52.376Z,93999.53
2022-11-14T02:07:20.104Z,93990.56
2022-11-14T02:09:48.318Z,93983.50
2022-11-14T02:12:17.354Z,93984.31
2022-11-14T02:14:46.737Z,93978.06
2022-11-14T02:17:29.089Z,93978.88
2022-11-14T02:20:06.806Z,93979.97
2022-11-14T02:22:34.607Z,93979.16
2022-11-14T02:25:02.224Z,93981.88
2022-11-14T02:27:30.040Z,93974.53
2022-11-14T02:30:04.918Z,93977.25
2022-11-14T02:32:45.096Z,93977.25
2022-11-14T02:35:21.491Z,93979.16
2022-11-14T02:37:49.159Z,93977.25
2022-11-14T02:40:16.748Z,93977.25
2022-11-14T02:42:44.336Z,93975.63
2022-11-14T02:45:11.941Z,93971.81
2022-11-14T02:47:39.532Z,93974.84
2022-11-14T02:50:07.504Z,93963.16
2022-11-14T02:52:36.390Z,93971.03
2022-11-14T02:55:04.027Z,93958.56
2022-11-14T02:57:31.584Z,93954.22
2022-11-14T02:59:59.261Z,93951.50
2022-11-14T03:02:26.964Z,93945.00
2022-11-14T03:04:55.106Z,93941.44
2022-11-14T03:07:22.751Z,93924.38
2022-11-14T03:09:51.749Z,93928.97
2022-11-14T03:12:19.563Z,93926.25
2022-11-14T03:14:47.131Z,93930.88
2022-11-14T03:17:14.765Z,93937.41
2022-11-14T03:19:42.316Z,93948.25
2022-11-14T03:22:09.916Z,93950.97
2022-11-14T03:24:37.462Z,93953.69
2022-11-14T03:27:06.480Z,93942.00
2022-11-14T03:29:34.030Z,93944.44
2022-11-14T03:32:01.603Z,93953.69
2022-11-14T03:34:29.272Z,93942.84
2022-11-14T03:36:56.882Z,93943.63
2022-11-14T03:39:24.456Z,93936.56
2022-11-14T03:41:52.028Z,93939.28
2022-11-14T03:44:20.933Z,93940.38
2022-11-14T03:46:48.476Z,93936.03
2022-11-14T03:49:16.031Z,93934.97
2022-11-14T03:51:43.598Z,93934.97
2022-11-14T03:54:11.139Z,93934.97
2022-11-14T03:56:38.751Z,93934.97
2022-11-14T03:59:06.274Z,93928.72
2022-11-14T04:01:35.147Z,93933.03
2022-11-14T04:04:02.711Z,93931.41
2022-11-14T04:06:30.301Z,93926.00
2022-11-14T04:08:57.930Z,93923.28
2022-11-14T04:11:25.546Z,93922.47
2022-11-14T04:13:53.141Z,93910.81
2022-11-14T04:16:20.731Z,93910.00
2022-11-14T04:18:49.727Z,93904.59
2022-11-14T04:21:17.314Z,93906.47
2022-11-14T04:23:44.911Z,93899.16
2022-11-14T04:26:12.497Z,93905.66
2022-11-14T04:28:40.075Z,93914.59
2022-11-14T04:31:07.679Z,93902.97
2022-11-14T04:33:35.300Z,93905.38
2022-11-14T04:36:04.242Z,93900.25
2022-11-14T04:38:32.123Z,93894.00
2022-11-14T04:41:00.170Z,93903.75
2022-11-14T04:43:27.773Z,93902.13
2022-11-14T04:45:55.332Z,93899.41
2022-11-14T04:48:22.927Z,93901.88
2022-11-14T04:50:50.498Z,93898.63
2022-11-14T04:53:19.386Z,93902.13
2022-11-14T04:55:47.972Z,93900.50
2022-11-14T04:58:15.557Z,93899.41
2022-11-14T05:00:43.106Z,93894.00
2022-11-14T05:03:10.623Z,93889.41
2022-11-14T05:05:41.909Z,93893.19
2022-11-14T05:08:10.004Z,93896.72
2022-11-14T05:10:38.959Z,93898.63
2022-11-14T05:13:06.567Z,93895.09
2022-11-14T05:15:34.158Z,93899.41
2022-11-14T05:18:01.755Z,93894.28
2022-11-14T05:20:29.468Z,93891.00
2022-11-14T05:22:58.387Z,93887.50
2022-11-14T05:25:26.019Z,93888.59
2022-11-14T05:27:54.931Z,93895.66
2022-11-14T05:30:22.626Z,93902.16
2022-11-14T05:32:50.335Z,93912.19
2022-11-14T05:35:17.892Z,93919.22
2022-11-14T05:37:45.496Z,93913.81
2022-11-14T05:40:13.381Z,93918.13
2022-11-14T05:42:40.933Z,93915.72
2022-11-14T05:45:11.252Z,93914.63
2022-11-14T05:47:38.836Z,93920.06
2022-11-14T05:50:07.514Z,93911.91
2022-11-14T05:52:35.095Z,93922.78
2022-11-14T05:55:02.643Z,93928.19
2022-11-14T05:57:31.585Z,93934.41
2022-11-14T06:00:19.481Z,93934.41
2022-11-14T06:02:47.136Z,93934.41
2022-11-14T06:05:14.748Z,93943.38
2022-11-14T06:07:42.321Z,93939.03
2022-11-14T06:10:10.129Z,93939.84
2022-11-14T06:12:37.738Z,93928.19
2022-11-14T06:15:05.632Z,93932.00
2022-11-14T06:17:34.589Z,93939.03
2022-11-14T06:20:02.227Z,93945.25
2022-11-14T06:22:29.831Z,93950.69
2022-11-14T06:24:57.390Z,93943.38
2022-11-14T06:27:24.912Z,93943.38
2022-11-14T06:29:52.528Z,93956.13
2022-11-14T06:32:40.063Z,93969.69
2022-11-14T06:35:08.985Z,93971.59
2022-11-14T06:37:37.051Z,93972.38
2022-11-14T06:40:05.272Z,93966.16
2022-11-14T06:42:32.833Z,93963.47
2022-11-14T06:45:00.410Z,93966.97
2022-11-14T06:47:28.257Z,93967.78
2022-11-14T06:49:57.364Z,93972.38
2022-11-14T06:52:26.482Z,93968.06
2022-11-14T06:54:54.036Z,93970.75
2022-11-14T06:57:21.608Z,93974.31
2022-11-14T06:59:49.164Z,93985.16
2022-11-14T07:02:21.665Z,93976.19
2022-11-14T07:04:49.622Z,93971.59
2022-11-14T07:07:18.644Z,93967.25
2022-11-14T07:09:46.290Z,93975.41
2022-11-14T07:12:13.851Z,93966.44
2022-11-14T07:14:41.412Z,93965.34
2022-11-14T07:17:08.935Z,93958.28
2022-11-14T07:19:36.519Z,93952.88
2022-11-14T07:22:04.078Z,93948.28
2022-11-14T07:24:33.028Z,93951.25
2022-11-14T07:27:02.049Z,93940.41
2022-11-14T07:29:29.636Z,93943.94
2022-11-14T07:31:57.262Z,93942.31
2022-11-14T07:34:24.841Z,93945.03
2022-11-14T07:36:52.445Z,93937.69
2022-11-14T07:39:20.016Z,93936.88
2022-11-14T07:41:49.047Z,93928.75
2022-11-14T07:44:16.590Z,93914.34
2022-11-14T07:46:44.332Z,93908.94
2022-11-14T07:49:11.933Z,93914.16
2022-11-14T07:51:39.487Z,93916.59
2022-11-14T07:54:07.068Z,93916.59
2022-11-14T07:56:34.615Z,93919.00
2022-11-14T07:59:03.655Z,93914.69
2022-11-14T08:01:31.271Z,93917.38
2022-11-14T08:03:58.891Z,93918.47
2022-11-14T08:06:26.962Z,93927.66
2022-11-14T08:08:54.532Z,93933.38
2022-11-14T08:11:42.657Z,93949.34
2022-11-14T08:14:11.876Z,93947.16
2022-11-14T08:16:39.419Z,93945.81
2022-11-14T08:19:07.232Z,93939.59
2022-11-14T08:21:34.991Z,93947.72
2022-11-14T08:24:02.670Z,93955.88
2022-11-14T08:26:34.071Z,93953.16
2022-11-14T08:29:02.129Z,93958.28
2022-11-14T08:31:31.237Z,93957.50
2022-11-14T08:33:58.783Z,93952.88
2022-11-14T08:36:26.364Z,93951.50
2022-11-14T08:38:56.295Z,93937.94
2022-11-14T08:41:28.130Z,93947.44
2022-11-14T08:43:55.673Z,93948.78
2022-11-14T08:46:23.212Z,93949.31
2022-11-14T08:48:52.160Z,93937.94
2022-11-14T08:51:19.736Z,93944.69
2022-11-14T08:53:47.327Z,93949.03
2022-11-14T08:56:14.975Z,93946.88
2022-11-14T08:58:42.664Z,93943.88
2022-11-14T09:01:10.657Z,93946.84
2022-11-14T09:03:38.280Z,93947.41
2022-11-14T09:06:07.537Z,93949.88
2022-11-14T09:08:35.137Z,93939.53
2022-11-14T09:11:05.679Z,93945.25
2022-11-14T09:13:33.776Z,93945.78
2022-11-14T09:16:01.380Z,93942.50
2022-11-14T09:18:29.311Z,93944.94
2022-11-14T09:21:00.959Z,93947.91
2022-11-14T09:23:30.424Z,93956.59
2022-11-14T09:25:58.261Z,93952.50
2022-11-14T09:28:25.840Z,93961.19
2022-11-14T09:30:53.379Z,93957.09
2022-11-14T09:33:20.956Z,93959.56
2022-11-14T09:35:48.591Z,93960.88
2022-11-14T09:38:16.160Z,93963.06
2022-11-14T09:40:52.390Z,93976.34
2022-11-14T09:43:29.796Z,93987.75
2022-11-14T09:45:57.624Z,93985.59
2022-11-14T09:48:27.340Z,93988.00
2022-11-14T09:51:04.668Z,93992.06
2022-11-14T09:53:33.129Z,93989.34
2022-11-14T09:56:02.049Z,93990.16
2022-11-14T09:58:29.772Z,93998.84
2022-11-14T10:00:59.470Z,94000.19
2022-11-14T10:03:32.325Z,94006.94
2022-11-14T10:06:18.805Z,94009.13
2022-11-14T10:08:51.001Z,94005.84
2022-11-14T10:11:29.035Z,94009.09
2022-11-14T10:14:26.355Z,94022.13
2022-11-14T10:16:58.344Z,94019.13
2022-11-14T10:19:30.725Z,94026.47
2022-11-14T10:22:07.208Z,94023.97
2022-11-14T10:24:46.600Z,94023.44
2022-11-14T10:27:18.307Z,94027.22
2022-11-14T10:29:56.831Z,94025.03
2022-11-14T10:32:32.501Z,94031.81
2022-11-14T10:35:02.339Z,94036.97
2022-11-14T10:37:32.532Z,94038.34
2022-11-14T10:40:04.300Z,94044.59
2022-11-14T10:42:35.528Z,94050.03
2022-11-14T10:45:04.391Z,94047.03
2022-11-14T10:47:39.878Z,94056.53
2022-11-14T10:50:15.874Z,94041.03
2022-11-14T10:52:43.489Z,94047.28
2022-11-14T10:55:14.880Z,94046.47
2022-11-14T10:57:44.099Z,94044.56
2022-11-14T11:00:22.929Z,94045.66
2022-11-14T11:02:53.036Z,94050.00
2022-11-14T11:05:22.072Z,94047.28
2022-11-14T11:08:36.209Z,94042.69
2022-11-14T11:11:14.725Z,94045.69
2022-11-14T11:13:51.480Z,94050.03
2022-11-14T11:16:21.163Z,94046.22
2022-11-14T11:18:50.853Z,94048.13
2022-11-14T11:21:19.442Z,94050.84
2022-11-14T11:23:50.864Z,94057.63
2022-11-14T11:26:23.519Z,94051.38
2022-11-14T11:29:18.036Z,94058.41
2022-11-14T11:31:53.046Z,94054.91
2022-11-14T11:34:23.782Z,94056.78
2022-11-14T11:36:52.717Z,94053.28
2022-11-14T11:39:22.922Z,94056.00
2022-11-14T11:44:41.559Z,94050.31
2022-11-14T11:47:10.875Z,94053.84
2022-11-14T11:49:41.848Z,94049.47
2022-11-14T11:52:13.698Z,94058.47
2022-11-14T11:54:48.920Z,94064.72
2022-11-14T11:57:21.731Z,94057.63
2022-11-14T11:59:53.241Z,94059.78
2022-11-14T12:02:23.754Z,94053.81
2022-11-14T12:04:52.058Z,94061.19
2022-11-14T12:07:20.315Z,94058.72
2022-11-14T12:10:09.746Z,94070.69
2022-11-14T12:12:49.769Z,94058.75
2022-11-14T12:15:20.588Z,94056.31
2022-11-14T12:17:57.608Z,94053.59
2022-11-14T12:20:46.825Z,94050.63
2022-11-14T12:23:27.837Z,94047.09
2022-11-14T12:26:01.945Z,94042.50
2022-11-14T12:28:39.790Z,94034.34
2022-11-14T12:31:11.945Z,94039.50
2022-11-14T12:33:40.594Z,94037.06
2022-11-14T12:36:10.454Z,94034.91
2022-11-14T12:38:43.093Z,94035.16
2022-11-14T12:41:11.194Z,94034.06
2022-11-14T12:43:40.414Z,94040.59
2022-11-14T12:46:11.442Z,94038.97
2022-11-14T12:48:39.647Z,94033.81
2022-11-14T12:51:30.063Z,94039.25
2022-11-14T12:53:57.899Z,94039.53
2022-11-14T12:56:48.710Z,94029.78
2022-11-14T12:59:34.981Z,94041.72
2022-11-14T13:02:29.599Z,94045.50
2022-11-14T13:05:04.405Z,94042.00
2022-11-14T13:07:38.248Z,94043.88
2022-11-14T13:10:15.751Z,94040.63
2022-11-14T13:13:01.167Z,94038.22
2022-11-14T13:15:49.127Z,94044.75
2022-11-14T13:18:41.127Z,94039.31
2022-11-14T13:21:37.791Z,94034.66
2022-11-14T13:24:08.647Z,94034.66
2022-11-14T13:26:40.903Z,94037.66
2022-11-14T13:29:08.580Z,94042.28
2022-11-14T13:31:50.341Z,94037.94
2022-11-14T13:34:41.657Z,94040.94
2022-11-14T13:37:15.908Z,94040.66
2022-11-14T13:39:45.763Z,94034.41
2022-11-14T13:42:29.504Z,94039.03
2022-11-14T13:45:18.946Z,94033.06
2022-11-14T13:48:25.071Z,94040.41
2022-11-14T13:50:56.415Z,94046.66
2022-11-14T13:53:24.857Z,94045.03
2022-11-14T13:55:56.744Z,94042.31
2022-11-14T13:58:34.707Z,94042.56
2022-11-14T14:01:09.825Z,94041.75
2022-11-14T14:03:42.624Z,94043.66
2022-11-14T14:06:21.203Z,94048.28
2022-11-14T14:09:02.015Z,94043.94
2022-11-14T14:11:55.196Z,94038.50
2022-11-14T14:14:32.956Z,94045.84
2022-11-14T14:17:03.416Z,94049.66
2022-11-14T14:19:37.374Z,94043.41
2022-11-14T14:22:08.360Z,94052.91
2022-11-14T14:24:49.384Z,94045.84
2022-11-14T14:27:18.360Z,94045.06
2022-11-14T14:29:47.196Z,94044.22
2022-11-14T14:32:15.365Z,94044.22
2022-11-14T14:34:43.013Z,94039.88
2022-11-14T14:37:27.163Z,94045.59
2022-11-14T14:39:58.472Z,94042.91
2022-11-14T14:42:29.579Z,94037.72
2022-11-14T14:45:01.376Z,94033.38
2022-11-14T14:47:34.944Z,94040.72
2022-11-14T14:50:02.920Z,94036.38
2022-11-14T14:52:32.776Z,94043.72
2022-11-14T14:55:02.248Z,94032.31
2022-11-14T14:57:30.334Z,94029.59
2022-11-14T15:00:01.215Z,94032.31
2022-11-14T15:02:28.905Z,94033.38
2022-11-14T15:04:56.532Z,94025.25
2022-11-14T15:07:25.056Z,94030.97
2022-11-14T15:09:54.865Z,94029.03
2022-11-14T15:12:22.803Z,94019.28
2022-11-14T15:14:50.392Z,94031.53
2022-11-14T15:17:17.949Z,94033.97
2022-11-14T15:19:46.287Z,94028.56
2022-11-14T15:22:26.700Z,94025.03
2022-11-14T15:25:20.270Z,94026.66
2022-11-14T15:27:49.298Z,94018.50
2022-11-14T15:30:25.008Z,94020.13
2022-11-14T15:32:53.719Z,94016.59
2022-11-14T15:35:32.323Z,94022.03
2022-11-14T15:38:36.912Z,94018.50
2022-11-14T15:41:21.529Z,94016.59
2022-11-14T15:43:50.781Z,94023.94
2022-11-14T15:46:49.093Z,94024.75
2022-11-14T15:49:23.720Z,94023.94
2022-11-14T15:51:53.314Z,94019.59
2022-11-14T15:54:30.805Z,94021.75
2022-11-14T15:57:00.725Z,94029.63
2022-11-14T15:59:28.961Z,94020.94
2022-11-14T16:01:59.098Z,94036.13
2022-11-14T16:04:29.494Z,94032.09
2022-11-14T16:06:57.108Z,94037.22
2022-11-14T16:09:24.716Z,94035.34
2022-11-14T16:11:52.291Z,94036.97
2022-11-14T16:14:21.167Z,94039.66
2022-11-14T16:16:48.748Z,94038.84
2022-11-14T16:19:16.692Z,94040.47
2022-11-14T16:21:44.571Z,94050.81
2022-11-14T16:24:14.823Z,94045.63
2022-11-14T16:26:42.379Z,94045.91
2022-11-14T16:29:10.049Z,94048.59
2022-11-14T16:31:39.055Z,94040.47
2022-11-14T16:34:06.752Z,94042.38
2022-11-14T16:36:34.355Z,94047.00
2022-11-14T16:39:02.968Z,94040.75
2022-11-14T16:41:30.563Z,94039.94
2022-11-14T16:43:58.248Z,94039.94
2022-11-14T16:46:25.825Z,94041.03
2022-11-14T16:48:55.265Z,94037.22
2022-11-14T16:51:46.574Z,94038.03
2022-11-14T16:54:11.972Z,94038.03
2022-11-14T16:56:39.739Z,94039.94
2022-11-14T16:59:07.527Z,94032.63
2022-11-14T17:01:35.225Z,94039.94
2022-11-14T17:04:04.305Z,94035.34
2022-11-14T17:06:31.919Z,94038.03
2022-11-14T17:09:00.254Z,94038.84
2022-11-14T17:11:28.065Z,94038.03
2022-11-14T17:13:55.655Z,94043.47
2022-11-14T17:16:23.226Z,94040.75
2022-11-14T17:18:53.914Z,94041.56
2022-11-14T17:21:22.932Z,94034.50
2022-11-14T17:23:54.675Z,94045.38
2022-11-14T17:26:22.286Z,94044.56
2022-11-14T17:28:49.959Z,94035.59
2022-11-14T17:31:17.630Z,94043.75
2022-11-14T17:33:45.313Z,94043.75
2022-11-14T17:36:14.003Z,94050.25
2022-11-14T17:38:42.950Z,94045.66
2022-11-14T17:41:10.558Z,94042.94
2022-11-14T17:43:39.944Z,94051.88
2022-11-14T17:46:12.699Z,94050.00
2022-11-14T17:48:42.977Z,94042.13
2022-11-14T17:51:13.467Z,94048.38
2022-11-14T17:53:41.300Z,94049.16
2022-11-14T17:56:10.492Z,94048.06
2022-11-14T17:58:38.076Z,94041.56
2022-11-14T18:01:10.378Z,94051.31
2022-11-14T18:03:37.944Z,94048.59
2022-11-14T18:06:07.180Z,94046.72
2022-11-14T18:08:34.807Z,94051.06
2022-11-14T18:11:02.446Z,94046.47
2022-11-14T18:13:31.508Z,94047.53
2022-11-14T18:16:02.074Z,94050.81
2022-11-14T18:18:31.369Z,94050.25
2022-11-14T18:20:59.296Z,94044.00
2022-11-14T18:23:26.900Z,94042.63
2022-11-14T18:25:54.501Z,94046.38
2022-11-14T18:28:22.699Z,94045.03
2022-11-14T18:30:57.870Z,94040.09
2022-11-14T18:33:25.502Z,94049.59
2022-11-14T18:35:57.317Z,94049.03
2022-11-14T18:38:24.890Z,94051.13
2022-11-14T18:40:57.156Z,94053.84
2022-11-14T18:43:25.148Z,94052.72
2022-11-14T18:45:52.770Z,94055.47
2022-11-14T18:48:21.735Z,94055.16
2022-11-14T18:50:49.344Z,94054.03
2022-11-14T18:53:16.909Z,94053.19
2022-11-14T18:55:44.949Z,94048.56
2022-11-14T18:58:14.373Z,94052.59
2022-11-14T19:00:42.002Z,94051.75
2022-11-14T19:03:10.895Z,94054.72
2022-11-14T19:05:39.792Z,94049.25
2022-11-14T19:08:07.668Z,94049.25
2022-11-14T19:10:35.255Z,94050.28
2022-11-14T19:13:02.828Z,94055.47
2022-11-14T19:15:30.415Z,94048.63
2022-11-14T19:17:58.049Z,94050.81
2022-11-14T19:20:25.704Z,94048.59
2022-11-14T19:22:54.619Z,94039.34
2022-11-14T19:25:22.243Z,94044.50
2022-11-14T19:27:51.559Z,94039.59
2022-11-14T19:30:19.413Z,94043.63
2022-11-14T19:32:47.083Z,94051.28
2022-11-14T19:35:20.253Z,94045.06
2022-11-14T19:37:48.298Z,94035.03
2022-11-14T19:40:17.308Z,94041.59
2022-11-14T19:42:44.943Z,94040.03
2022-11-14T19:45:12.536Z,94034.59
2022-11-14T19:47:40.179Z,94038.16
2022-11-14T19:50:09.805Z,94035.47
2022-11-14T19:52:37.594Z,94029.00
2022-11-14T19:55:05.595Z,94026.03
2022-11-14T19:57:34.556Z,94027.69
2022-11-14T20:00:02.151Z,94023.88
2022-11-14T20:02:29.784Z,94026.91
2022-11-14T20:04:57.377Z,94021.25
2022-11-14T20:07:25.109Z,94018.78
2022-11-14T20:09:52.924Z,94010.34
2022-11-14T20:12:20.606Z,94013.09
2022-11-14T20:14:49.648Z,94014.47
2022-11-14T20:17:17.274Z,94011.47
2022-11-14T20:19:44.920Z,94006.63
2022-11-14T20:22:12.559Z,94009.06
2022-11-14T20:24:40.216Z,94004.47
2022-11-14T20:27:07.891Z,94010.19
2022-11-14T20:29:35.540Z,93996.09
2022-11-14T20:32:04.551Z,94002.88
2022-11-14T20:34:32.213Z,94001.53
2022-11-14T20:37:15.144Z,93999.91
2022-11-14T20:39:42.849Z,93995.84
2022-11-14T20:42:10.478Z,93993.41
2022-11-14T20:44:38.106Z,93994.75
2022-11-14T20:47:10.820Z,93994.75
2022-11-14T20:49:38.918Z,93992.34
2022-11-14T20:52:06.646Z,93995.06
2022-11-14T20:54:34.303Z,93998.03
2022-11-14T20:57:01.960Z,94007.28
2022-11-14T20:59:29.652Z,93997.50
2022-11-14T21:01:57.320Z,93996.69
2022-11-14T21:04:26.358Z,93993.44
2022-11-14T21:06:53.999Z,93993.44
2022-11-14T21:09:21.534Z,93991.53
2022-11-14T21:11:49.107Z,93999.16
2022-11-14T21:14:16.734Z,93992.91
2022-11-14T21:16:44.401Z,93992.06
2022-11-14T21:19:12.016Z,93990.75
2022-11-14T21:21:40.963Z,93990.75
2022-11-14T21:24:08.834Z,93991.84
2022-11-14T21:26:38.091Z,93992.09
2022-11-14T21:29:06.837Z,93991.31
2022-11-14T21:31:35.083Z,93999.44
2022-11-14T21:34:03.433Z,93992.38
2022-11-14T21:36:44.990Z,93994.28
2022-11-14T21:39:16.136Z,93986.16
2022-11-14T21:41:44.350Z,93991.84
2022-11-14T21:44:13.465Z,93988.31
2022-11-14T21:46:41.202Z,93982.06
2022-11-14T21:49:08.922Z,93982.06
2022-11-14T21:51:36.520Z,93984.00
2022-11-14T21:54:05.945Z,93983.16
2022-11-14T21:56:35.747Z,93981.28
2022-11-14T21:59:16.791Z,93984.25
2022-11-14T22:02:02.906Z,93980.75
2022-11-14T22:04:31.307Z,93976.94
2022-11-14T22:06:59.123Z,93978.03
2022-11-14T22:09:27.222Z,93968.22
2022-11-14T22:11:56.475Z,93967.44
2022-11-14T22:14:24.160Z,93972.03
2022-11-14T22:16:51.744Z,93972.03
2022-11-14T22:19:19.562Z,93968.53
2022-11-14T22:21:47.108Z,93976.66
2022-11-14T22:24:14.634Z,93967.69
2022-11-14T22:26:42.217Z,93972.34
2022-11-14T22:29:11.111Z,93970.41
2022-11-14T22:31:38.698Z,93957.94
2022-11-14T22:34:06.344Z,93966.91
2022-11-14T22:36:34.308Z,93961.75
2022-11-14T22:39:02.047Z,93966.38
2022-11-14T22:41:32.664Z,93959.31
2022-11-14T22:44:00.891Z,93965.53
2022-11-14T22:46:29.948Z,93964.75
2022-11-14T22:48:58.131Z,93968.53
2022-11-14T22:51:26.570Z,93963.91
2022-11-14T22:53:54.799Z,93959.59
2022-11-14T22:56:23.231Z,93952.53
2022-11-14T22:58:50.820Z,93956.03
2022-11-14T23:01:19.742Z,93959.84
2022-11-14T23:03:48.985Z,93952.53
2022-11-14T23:06:17.525Z,93950.63
2022-11-14T23:08:45.257Z,93955.50
2022-11-14T23:11:14.502Z,93950.91
2022-11-14T23:13:42.798Z,93950.09
2022-11-14T23:16:10.690Z,93952.00
2022-11-14T23:18:38.222Z,93951.47
2022-11-14T23:21:07.973Z,93947.94
2022-11-14T23:23:35.643Z,93951.47
2022-11-14T23:26:04.078Z,93947.09
2022-11-14T23:28:31.707Z,93947.94
2022-11-14T23:30:59.439Z,93942.50
2022-11-14T23:33:27.056Z,93940.88
2022-11-14T23:35:54.685Z,93942.75
2022-11-14T23:38:23.643Z,93931.13
2022-11-14T23:40:54.400Z,93938.44
2022-11-14T23:43:22.044Z,93933.00
2022-11-14T23:45:49.694Z,93930.28
2022-11-14T23:48:17.394Z,93932.19
2022-11-14T23:50:45.458Z,93924.84
2022-11-14T23:53:13.124Z,93924.84
2022-11-14T23:55:42.048Z,93925.94
2022-11-14T23:58:09.632Z,93921.34
